sensor_id;sensor_type;location;lat;lon;timestamp;pressure;altitude;pressure_sealevel;temperature;humidity
20424;BME280;10371;49.042;8.002;2022-12-29T00:00:27;99318.63;;;9.21;90.73
20424;BME280;10371;49.042;8.002;2022-12-29T00:01:27;99306.91;;;9.27;90.20
20424;BME280;10371;49.042;8.002;2022-12-29T00:02:27;99311.19;;;9.37;89.83
20424;BME280;10371;49.042;8.002;2022-12-29T00:03:28;99306.44;;;9.43;89.47
20424;BME280;10371;49.042;8.002;2022-12-29T00:04:28;99310.28;;;9.48;89.26
20424;BME280;10371;49.042;8.002;2022-12-29T00:05:28;99312.25;;;9.56;89.07
20424;BME280;10371;49.042;8.002;2022-12-29T00:06:29;99302.97;;;9.63;88.69
20424;BME280;10371;49.042;8.002;2022-12-29T00:07:30;99309.31;;;9.70;88.52
20424;BME280;10371;49.042;8.002;2022-12-29T00:08:30;99302.88;;;9.74;88.35
20424;BME280;10371;49.042;8.002;2022-12-29T00:09:39;99303.75;;;9.84;87.79
20424;BME280;10371;49.042;8.002;2022-12-29T00:10:39;99301.44;;;9.91;87.38
20424;BME280;10371;49.042;8.002;2022-12-29T00:11:40;99299.97;;;9.98;87.09
20424;BME280;10371;49.042;8.002;2022-12-29T00:12:40;99315.31;;;10.11;86.54
20424;BME280;10371;49.042;8.002;2022-12-29T00:13:59;99305.31;;;10.16;86.35
20424;BME280;10371;49.042;8.002;2022-12-29T00:15:18;99312.84;;;10.19;86.26
20424;BME280;10371;49.042;8.002;2022-12-29T00:16:37;99296.63;;;10.27;85.96
20424;BME280;10371;49.042;8.002;2022-12-29T00:17:38;99304.72;;;10.34;85.77
20424;BME280;10371;49.042;8.002;2022-12-29T00:18:38;99312.13;;;10.48;85.09
20424;BME280;10371;49.042;8.002;2022-12-29T00:19:38;99305.41;;;10.55;84.63
20424;BME280;10371;49.042;8.002;2022-12-29T00:20:57;99308.31;;;10.62;84.42
20424;BME280;10371;49.042;8.002;2022-12-29T00:22:16;99302.66;;;10.66;84.25
20424;BME280;10371;49.042;8.002;2022-12-29T00:23:36;99311.16;;;10.68;84.29
20424;BME280;10371;49.042;8.002;2022-12-29T00:24:55;99297.75;;;10.73;84.12
20424;BME280;10371;49.042;8.002;2022-12-29T00:26:03;99307.59;;;10.79;84.28
20424;BME280;10371;49.042;8.002;2022-12-29T00:27:22;99295.66;;;10.86;84.11
20424;BME280;10371;49.042;8.002;2022-12-29T00:28:40;99305.41;;;10.94;83.85
20424;BME280;10371;49.042;8.002;2022-12-29T00:29:59;99316.91;;;11.01;83.97
20424;BME280;10371;49.042;8.002;2022-12-29T00:31:18;99299.63;;;11.10;84.40
20424;BME280;10371;49.042;8.002;2022-12-29T00:32:37;99300.00;;;11.25;84.88
20424;BME280;10371;49.042;8.002;2022-12-29T00:33:55;99311.63;;;11.40;84.69
20424;BME280;10371;49.042;8.002;2022-12-29T00:35:21;99311.88;;;11.47;84.73
20424;BME280;10371;49.042;8.002;2022-12-29T00:36:31;99313.78;;;11.54;84.68
20424;BME280;10371;49.042;8.002;2022-12-29T00:37:32;99309.53;;;11.53;84.44
20424;BME280;10371;49.042;8.002;2022-12-29T00:38:56;99295.09;;;11.59;84.29
20424;BME280;10371;49.042;8.002;2022-12-29T00:40:16;99308.38;;;11.66;84.49
20424;BME280;10371;49.042;8.002;2022-12-29T00:41:35;99317.41;;;11.71;84.62
20424;BME280;10371;49.042;8.002;2022-12-29T00:42:54;99313.72;;;11.74;84.76
20424;BME280;10371;49.042;8.002;2022-12-29T00:44:13;99307.69;;;11.73;85.08
20424;BME280;10371;49.042;8.002;2022-12-29T00:45:14;99318.41;;;11.70;85.16
20424;BME280;10371;49.042;8.002;2022-12-29T00:46:14;99318.66;;;11.67;85.38
20424;BME280;10371;49.042;8.002;2022-12-29T00:47:14;99313.72;;;11.64;85.79
20424;BME280;10371;49.042;8.002;2022-12-29T00:48:14;99319.22;;;11.61;86.11
20424;BME280;10371;49.042;8.002;2022-12-29T00:49:15;99318.69;;;11.57;86.30
20424;BME280;10371;49.042;8.002;2022-12-29T00:50:30;99309.91;;;11.58;86.33
20424;BME280;10371;49.042;8.002;2022-12-29T00:51:30;99315.69;;;11.62;86.49
20424;BME280;10371;49.042;8.002;2022-12-29T00:52:30;99311.84;;;11.56;86.53
20424;BME280;10371;49.042;8.002;2022-12-29T00:53:31;99307.69;;;11.63;86.63
20424;BME280;10371;49.042;8.002;2022-12-29T00:54:34;99318.28;;;11.62;86.78
20424;BME280;10371;49.042;8.002;2022-12-29T00:55:37;99304.16;;;11.55;86.99
20424;BME280;10371;49.042;8.002;2022-12-29T00:56:38;99297.31;;;11.54;87.29
20424;BME280;10371;49.042;8.002;2022-12-29T00:57:38;99314.06;;;11.51;87.36
20424;BME280;10371;49.042;8.002;2022-12-29T00:58:38;99326.13;;;11.52;87.51
20424;BME280;10371;49.042;8.002;2022-12-29T00:59:40;99307.06;;;11.52;87.85
20424;BME280;10371;49.042;8.002;2022-12-29T01:00:40;99316.38;;;11.54;87.84
20424;BME280;10371;49.042;8.002;2022-12-29T01:01:41;99312.97;;;11.54;87.58
20424;BME280;10371;49.042;8.002;2022-12-29T01:02:42;99315.16;;;11.49;88.11
20424;BME280;10371;49.042;8.002;2022-12-29T01:03:42;99302.56;;;11.44;88.41
20424;BME280;10371;49.042;8.002;2022-12-29T01:04:42;99299.41;;;11.40;88.75
20424;BME280;10371;49.042;8.002;2022-12-29T01:05:43;99326.97;;;11.43;88.82
20424;BME280;10371;49.042;8.002;2022-12-29T01:06:44;99315.56;;;11.44;88.96
20424;BME280;10371;49.042;8.002;2022-12-29T01:07:44;99320.09;;;11.42;88.86
20424;BME280;10371;49.042;8.002;2022-12-29T01:08:44;99317.50;;;11.42;89.00
20424;BME280;10371;49.042;8.002;2022-12-29T01:09:45;99310.25;;;11.36;89.32
20424;BME280;10371;49.042;8.002;2022-12-29T01:11:09;99317.41;;;11.34;89.64
20424;BME280;10371;49.042;8.002;2022-12-29T01:12:10;99305.59;;;11.30;89.82
20424;BME280;10371;49.042;8.002;2022-12-29T01:13:10;99312.47;;;11.31;89.97
20424;BME280;10371;49.042;8.002;2022-12-29T01:14:10;99309.31;;;11.27;90.08
20424;BME280;10371;49.042;8.002;2022-12-29T01:15:13;99309.47;;;11.26;90.22
20424;BME280;10371;49.042;8.002;2022-12-29T01:16:14;99322.63;;;11.24;90.34
20424;BME280;10371;49.042;8.002;2022-12-29T01:17:14;99312.22;;;11.24;90.55
20424;BME280;10371;49.042;8.002;2022-12-29T01:18:14;99318.69;;;11.20;90.58
20424;BME280;10371;49.042;8.002;2022-12-29T01:19:16;99309.06;;;11.21;91.01
20424;BME280;10371;49.042;8.002;2022-12-29T01:20:16;99311.13;;;11.17;91.12
20424;BME280;10371;49.042;8.002;2022-12-29T01:21:17;99321.00;;;11.23;91.23
20424;BME280;10371;49.042;8.002;2022-12-29T01:22:17;99322.06;;;11.30;90.66
20424;BME280;10371;49.042;8.002;2022-12-29T01:23:17;99313.72;;;11.27;90.61
20424;BME280;10371;49.042;8.002;2022-12-29T01:24:18;99316.84;;;11.30;90.72
20424;BME280;10371;49.042;8.002;2022-12-29T01:25:19;99313.44;;;11.30;90.70
20424;BME280;10371;49.042;8.002;2022-12-29T01:26:19;99319.63;;;11.29;90.84
20424;BME280;10371;49.042;8.002;2022-12-29T01:27:19;99311.09;;;11.27;90.96
20424;BME280;10371;49.042;8.002;2022-12-29T01:28:20;99306.72;;;11.27;91.08
20424;BME280;10371;49.042;8.002;2022-12-29T01:29:21;99305.59;;;11.30;90.99
20424;BME280;10371;49.042;8.002;2022-12-29T01:30:21;99309.19;;;11.29;91.17
20424;BME280;10371;49.042;8.002;2022-12-29T01:31:22;99311.91;;;11.27;91.31
20424;BME280;10371;49.042;8.002;2022-12-29T01:32:22;99313.84;;;11.25;91.34
20424;BME280;10371;49.042;8.002;2022-12-29T01:33:23;99314.69;;;11.26;91.51
20424;BME280;10371;49.042;8.002;2022-12-29T01:34:23;99317.13;;;11.27;91.43
20424;BME280;10371;49.042;8.002;2022-12-29T01:35:23;99323.16;;;11.28;91.81
20424;BME280;10371;49.042;8.002;2022-12-29T01:36:24;99312.75;;;11.28;91.48
20424;BME280;10371;49.042;8.002;2022-12-29T01:37:25;99317.66;;;11.31;91.51
20424;BME280;10371;49.042;8.002;2022-12-29T01:38:25;99316.31;;;11.27;91.56
20424;BME280;10371;49.042;8.002;2022-12-29T01:39:25;99311.91;;;11.27;91.62
20424;BME280;10371;49.042;8.002;2022-12-29T01:40:26;99315.34;;;11.28;91.79
20424;BME280;10371;49.042;8.002;2022-12-29T01:41:26;99313.03;;;11.25;91.78
20424;BME280;10371;49.042;8.002;2022-12-29T01:42:26;99311.38;;;11.24;91.69
20424;BME280;10371;49.042;8.002;2022-12-29T01:43:46;99315.34;;;11.28;91.97
20424;BME280;10371;49.042;8.002;2022-12-29T01:44:55;99316.03;;;11.30;91.77
20424;BME280;10371;49.042;8.002;2022-12-29T01:45:56;99311.09;;;11.27;91.64
20424;BME280;10371;49.042;8.002;2022-12-29T01:46:56;99313.59;;;11.28;91.83
20424;BME280;10371;49.042;8.002;2022-12-29T01:48:00;99304.78;;;11.29;91.68
20424;BME280;10371;49.042;8.002;2022-12-29T01:49:13;99316.03;;;11.30;91.68
20424;BME280;10371;49.042;8.002;2022-12-29T01:50:20;99303.53;;;11.33;91.55
20424;BME280;10371;49.042;8.002;2022-12-29T01:51:24;99296.69;;;11.32;91.51
20424;BME280;10371;49.042;8.002;2022-12-29T01:52:28;99294.09;;;11.32;91.21
20424;BME280;10371;49.042;8.002;2022-12-29T01:53:31;99304.22;;;11.35;91.08
20424;BME280;10371;49.042;8.002;2022-12-29T01:54:47;99297.50;;;11.33;91.00
20424;BME280;10371;49.042;8.002;2022-12-29T01:55:54;99285.84;;;11.37;90.97
20424;BME280;10371;49.042;8.002;2022-12-29T01:56:59;99288.59;;;11.35;91.01
20424;BME280;10371;49.042;8.002;2022-12-29T01:58:03;99293.56;;;11.29;91.24
20424;BME280;10371;49.042;8.002;2022-12-29T01:59:09;99287.38;;;11.30;91.13
20424;BME280;10371;49.042;8.002;2022-12-29T02:00:12;99290.25;;;11.27;91.22
20424;BME280;10371;49.042;8.002;2022-12-29T02:01:14;99292.19;;;11.25;91.21
20424;BME280;10371;49.042;8.002;2022-12-29T02:02:17;99293.84;;;11.26;91.26
20424;BME280;10371;49.042;8.002;2022-12-29T02:03:19;99291.25;;;11.26;91.25
20424;BME280;10371;49.042;8.002;2022-12-29T02:04:23;99283.69;;;11.23;91.38
20424;BME280;10371;49.042;8.002;2022-12-29T02:05:29;99290.25;;;11.27;91.31
20424;BME280;10371;49.042;8.002;2022-12-29T02:06:38;99283.25;;;11.27;91.25
20424;BME280;10371;49.042;8.002;2022-12-29T02:07:42;99292.19;;;11.25;91.34
20424;BME280;10371;49.042;8.002;2022-12-29T02:08:46;99293.44;;;11.21;91.56
20424;BME280;10371;49.042;8.002;2022-12-29T02:09:48;99305.50;;;11.22;91.80
20424;BME280;10371;49.042;8.002;2022-12-29T02:10:50;99305.09;;;11.16;92.06
20424;BME280;10371;49.042;8.002;2022-12-29T02:11:51;99291.50;;;11.23;92.13
20424;BME280;10371;49.042;8.002;2022-12-29T02:12:52;99299.59;;;11.29;91.87
20424;BME280;10371;49.042;8.002;2022-12-29T02:13:52;99299.59;;;11.29;91.62
20424;BME280;10371;49.042;8.002;2022-12-29T02:14:59;99290.78;;;11.30;92.04
20424;BME280;10371;49.042;8.002;2022-12-29T02:16:14;99294.78;;;11.34;92.62
20424;BME280;10371;49.042;8.002;2022-12-29T02:17:28;99292.75;;;11.28;94.21
20424;BME280;10371;49.042;8.002;2022-12-29T02:18:51;99296.03;;;11.21;95.78
20424;BME280;10371;49.042;8.002;2022-12-29T02:21:41;99288.09;;;11.12;98.16
20424;BME280;10371;49.042;8.002;2022-12-29T02:23:00;99287.69;;;11.07;98.71
20424;BME280;10371;49.042;8.002;2022-12-29T02:32:08;99261.00;;;10.86;100.00
20424;BME280;10371;49.042;8.002;2022-12-29T02:33:21;99268.16;;;10.84;100.00
20424;BME280;10371;49.042;8.002;2022-12-29T02:34:44;99262.78;;;10.85;100.00
20424;BME280;10371;49.042;8.002;2022-12-29T02:37:05;99253.19;;;10.86;100.00
20424;BME280;10371;49.042;8.002;2022-12-29T02:38:36;99261.28;;;10.92;99.98
20424;BME280;10371;49.042;8.002;2022-12-29T02:39:47;99260.44;;;10.92;99.80
20424;BME280;10371;49.042;8.002;2022-12-29T02:41:08;99255.50;;;10.99;99.54
20424;BME280;10371;49.042;8.002;2022-12-29T02:43:39;99255.09;;;10.93;98.98
20424;BME280;10371;49.042;8.002;2022-12-29T02:46:04;99252.38;;;10.95;98.84
20424;BME280;10371;49.042;8.002;2022-12-29T02:48:58;99246.75;;;10.90;98.42
20424;BME280;10371;49.042;8.002;2022-12-29T02:50:27;99239.88;;;10.89;98.33
20424;BME280;10371;49.042;8.002;2022-12-29T02:51:31;99238.53;;;10.85;98.27
20424;BME280;10371;49.042;8.002;2022-12-29T02:52:40;99243.06;;;10.83;98.26
20424;BME280;10371;49.042;8.002;2022-12-29T02:53:44;99250.34;;;10.79;98.27
20424;BME280;10371;49.042;8.002;2022-12-29T02:55:03;99250.03;;;10.72;98.29
20424;BME280;10371;49.042;8.002;2022-12-29T02:56:04;99249.38;;;10.70;98.54
20424;BME280;10371;49.042;8.002;2022-12-29T02:57:15;99248.41;;;10.71;98.38
20424;BME280;10371;49.042;8.002;2022-12-29T02:58:26;99242.22;;;10.72;98.01
20424;BME280;10371;49.042;8.002;2022-12-29T02:59:27;99242.22;;;10.72;97.83
20424;BME280;10371;49.042;8.002;2022-12-29T03:00:27;99245.00;;;10.71;98.00
20424;BME280;10371;49.042;8.002;2022-12-29T03:04:30;99244.19;;;10.70;97.76
20424;BME280;10371;49.042;8.002;2022-12-29T03:07:19;99243.06;;;10.63;97.37
20424;BME280;10371;49.042;8.002;2022-12-29T03:08:39;99233.91;;;10.59;97.29
20424;BME280;10371;49.042;8.002;2022-12-29T03:09:54;99231.44;;;10.58;97.57
20424;BME280;10371;49.042;8.002;2022-12-29T03:11:09;99237.06;;;10.53;97.33
20424;BME280;10371;49.042;8.002;2022-12-29T03:12:36;99236.66;;;10.48;97.74
20424;BME280;10371;49.042;8.002;2022-12-29T03:15:46;99236.66;;;10.38;97.65
20424;BME280;10371;49.042;8.002;2022-12-29T03:17:08;99235.28;;;10.34;97.54
20424;BME280;10371;49.042;8.002;2022-12-29T03:18:14;99245.53;;;10.36;97.65
20424;BME280;10371;49.042;8.002;2022-12-29T03:19:26;99240.50;;;10.34;97.72
20424;BME280;10371;49.042;8.002;2022-12-29T03:21:07;99234.47;;;10.34;97.58
20424;BME280;10371;49.042;8.002;2022-12-29T03:22:08;99237.75;;;10.36;96.98
20424;BME280;10371;49.042;8.002;2022-12-29T03:23:28;99231.47;;;10.28;96.88
20424;BME280;10371;49.042;8.002;2022-12-29T03:24:33;99226.66;;;10.34;96.84
20424;BME280;10371;49.042;8.002;2022-12-29T03:25:39;99225.97;;;10.32;96.85
20424;BME280;10371;49.042;8.002;2022-12-29T03:26:42;99217.47;;;10.29;96.81
20424;BME280;10371;49.042;8.002;2022-12-29T03:27:46;99220.22;;;10.28;96.63
20424;BME280;10371;49.042;8.002;2022-12-29T03:28:53;99219.09;;;10.31;96.73
20424;BME280;10371;49.042;8.002;2022-12-29T03:29:57;99215.84;;;10.28;96.48
20424;BME280;10371;49.042;8.002;2022-12-29T03:30:59;99207.88;;;10.30;96.15
20424;BME280;10371;49.042;8.002;2022-12-29T03:32:01;99216.94;;;10.36;95.92
20424;BME280;10371;49.042;8.002;2022-12-29T03:33:05;99205.84;;;10.34;95.75
20424;BME280;10371;49.042;8.002;2022-12-29T03:34:08;99206.50;;;10.36;95.72
20424;BME280;10371;49.042;8.002;2022-12-29T03:35:13;99210.78;;;10.37;95.60
20424;BME280;10371;49.042;8.002;2022-12-29T03:36:25;99209.13;;;10.36;95.39
20424;BME280;10371;49.042;8.002;2022-12-29T03:37:35;99206.13;;;10.40;94.91
20424;BME280;10371;49.042;8.002;2022-12-29T03:38:58;99206.94;;;10.41;94.71
20424;BME280;10371;49.042;8.002;2022-12-29T03:40:00;99196.69;;;10.39;94.74
20424;BME280;10371;49.042;8.002;2022-12-29T03:41:05;99196.94;;;10.36;94.52
20424;BME280;10371;49.042;8.002;2022-12-29T03:42:13;99196.25;;;10.34;94.42
20424;BME280;10371;49.042;8.002;2022-12-29T03:43:14;99201.31;;;10.36;94.49
20424;BME280;10371;49.042;8.002;2022-12-29T03:44:15;99191.19;;;10.33;94.58
20424;BME280;10371;49.042;8.002;2022-12-29T03:45:15;99205.84;;;10.34;94.42
20424;BME280;10371;49.042;8.002;2022-12-29T03:46:15;99189.28;;;10.35;94.53
20424;BME280;10371;49.042;8.002;2022-12-29T03:47:16;99188.72;;;10.41;94.13
20424;BME280;10371;49.042;8.002;2022-12-29T03:48:16;99198.72;;;10.45;93.88
20424;BME280;10371;49.042;8.002;2022-12-29T03:49:16;99196.13;;;10.45;93.31
20424;BME280;10371;49.042;8.002;2022-12-29T03:50:16;99186.94;;;10.51;93.05
20424;BME280;10371;49.042;8.002;2022-12-29T03:51:17;99191.16;;;10.52;92.81
20424;BME280;10371;49.042;8.002;2022-12-29T03:52:17;99188.44;;;10.54;92.53
20424;BME280;10371;49.042;8.002;2022-12-29T03:53:18;99195.81;;;10.58;92.39
20424;BME280;10371;49.042;8.002;2022-12-29T03:54:18;99200.06;;;10.59;92.53
20424;BME280;10371;49.042;8.002;2022-12-29T03:55:18;99194.72;;;10.61;92.17
20424;BME280;10371;49.042;8.002;2022-12-29T03:56:19;99200.63;;;10.63;92.10
20424;BME280;10371;49.042;8.002;2022-12-29T03:57:19;99201.44;;;10.63;91.71
20424;BME280;10371;49.042;8.002;2022-12-29T03:58:19;99198.81;;;10.73;91.29
20424;BME280;10371;49.042;8.002;2022-12-29T03:59:19;99197.16;;;10.82;90.67
20424;BME280;10371;49.042;8.002;2022-12-29T04:00:20;99191.94;;;10.82;90.47
20424;BME280;10371;49.042;8.002;2022-12-29T04:01:20;99199.31;;;10.86;90.38
20424;BME280;10371;49.042;8.002;2022-12-29T04:02:20;99186.16;;;10.88;90.01
20424;BME280;10371;49.042;8.002;2022-12-29T04:03:21;99199.88;;;10.90;89.83
20424;BME280;10371;49.042;8.002;2022-12-29T04:04:21;99184.25;;;10.90;89.64
20424;BME280;10371;49.042;8.002;2022-12-29T04:05:21;99203.00;;;10.93;89.58
20424;BME280;10371;49.042;8.002;2022-12-29T04:06:21;99189.03;;;10.94;89.53
20424;BME280;10371;49.042;8.002;2022-12-29T04:07:22;99199.44;;;10.94;89.56
20424;BME280;10371;49.042;8.002;2022-12-29T04:08:22;99188.22;;;10.94;89.59
20424;BME280;10371;49.042;8.002;2022-12-29T04:09:22;99202.59;;;10.98;89.06
20424;BME280;10371;49.042;8.002;2022-12-29T04:10:23;99191.91;;;11.01;88.87
20424;BME280;10371;49.042;8.002;2022-12-29T04:11:23;99196.53;;;11.07;88.76
20424;BME280;10371;49.042;8.002;2022-12-29T04:12:23;99190.91;;;11.12;88.42
20424;BME280;10371;49.042;8.002;2022-12-29T04:13:23;99193.06;;;11.16;88.25
20424;BME280;10371;49.042;8.002;2022-12-29T04:14:24;99195.38;;;11.19;87.78
20424;BME280;10371;49.042;8.002;2022-12-29T04:15:24;99194.56;;;11.19;87.57
20424;BME280;10371;49.042;8.002;2022-12-29T04:16:26;99191.00;;;11.20;87.52
20424;BME280;10371;49.042;8.002;2022-12-29T04:17:26;99191.81;;;11.21;87.13
20424;BME280;10371;49.042;8.002;2022-12-29T04:18:26;99184.00;;;11.21;87.20
20424;BME280;10371;49.042;8.002;2022-12-29T04:19:27;99176.72;;;11.24;86.96
20424;BME280;10371;49.042;8.002;2022-12-29T04:20:27;99177.13;;;11.29;86.40
20424;BME280;10371;49.042;8.002;2022-12-29T04:21:46;99181.22;;;11.32;86.37
20424;BME280;10371;49.042;8.002;2022-12-29T04:22:46;99185.47;;;11.33;86.16
20424;BME280;10371;49.042;8.002;2022-12-29T04:23:46;99186.13;;;11.35;85.90
20424;BME280;10371;49.042;8.002;2022-12-29T04:24:46;99187.13;;;11.34;85.87
20424;BME280;10371;49.042;8.002;2022-12-29T04:25:47;99194.47;;;11.38;85.82
20424;BME280;10371;49.042;8.002;2022-12-29T04:26:48;99190.94;;;11.39;85.67
20424;BME280;10371;49.042;8.002;2022-12-29T04:27:48;99193.38;;;11.41;85.70
20424;BME280;10371;49.042;8.002;2022-12-29T04:28:48;99188.56;;;11.46;85.24
20424;BME280;10371;49.042;8.002;2022-12-29T04:29:48;99184.84;;;11.49;85.02
20424;BME280;10371;49.042;8.002;2022-12-29T04:30:49;99182.91;;;11.51;85.04
20424;BME280;10371;49.042;8.002;2022-12-29T04:31:49;99185.22;;;11.54;84.88
20424;BME280;10371;49.042;8.002;2022-12-29T04:32:49;99194.25;;;11.59;84.55
20424;BME280;10371;49.042;8.002;2022-12-29T04:33:50;99186.13;;;11.62;84.49
20424;BME280;10371;49.042;8.002;2022-12-29T04:34:50;99183.38;;;11.64;84.20
20424;BME280;10371;49.042;8.002;2022-12-29T04:35:50;99190.06;;;11.67;84.22
20424;BME280;10371;49.042;8.002;2022-12-29T04:36:52;99194.06;;;11.71;83.96
20424;BME280;10371;49.042;8.002;2022-12-29T04:37:52;99195.53;;;11.73;84.41
20424;BME280;10371;49.042;8.002;2022-12-29T04:38:52;99192.94;;;11.73;84.40
20424;BME280;10371;49.042;8.002;2022-12-29T04:39:53;99200.31;;;11.78;84.07
20424;BME280;10371;49.042;8.002;2022-12-29T04:40:53;99213.22;;;11.79;84.39
20424;BME280;10371;49.042;8.002;2022-12-29T04:41:53;99208.00;;;11.79;84.02
20424;BME280;10371;49.042;8.002;2022-12-29T04:42:53;99204.69;;;11.77;84.07
20424;BME280;10371;49.042;8.002;2022-12-29T04:43:54;99212.41;;;11.79;84.60
20424;BME280;10371;49.042;8.002;2022-12-29T04:44:54;99221.03;;;11.79;85.54
20424;BME280;10371;49.042;8.002;2022-12-29T04:45:54;99210.16;;;11.84;86.49
20424;BME280;10371;49.042;8.002;2022-12-29T04:46:54;99209.78;;;11.79;88.42
20424;BME280;10371;49.042;8.002;2022-12-29T04:47:55;99207.50;;;11.66;89.44
20424;BME280;10371;49.042;8.002;2022-12-29T04:48:55;99204.13;;;11.56;90.80
20424;BME280;10371;49.042;8.002;2022-12-29T04:49:55;99218.56;;;11.50;91.80
20424;BME280;10371;49.042;8.002;2022-12-29T04:50:55;99205.16;;;11.45;92.30
20424;BME280;10371;49.042;8.002;2022-12-29T04:51:56;99206.69;;;11.38;93.16
20424;BME280;10371;49.042;8.002;2022-12-29T04:52:56;99198.47;;;11.33;93.45
20424;BME280;10371;49.042;8.002;2022-12-29T04:53:57;99194.25;;;11.32;93.44
20424;BME280;10371;49.042;8.002;2022-12-29T04:54:57;99195.47;;;11.28;93.57
20424;BME280;10371;49.042;8.002;2022-12-29T04:55:57;99197.28;;;11.27;93.22
20424;BME280;10371;49.042;8.002;2022-12-29T04:56:57;99191.94;;;11.29;92.31
20424;BME280;10371;49.042;8.002;2022-12-29T04:57:58;99193.28;;;11.33;92.08
20424;BME280;10371;49.042;8.002;2022-12-29T04:58:58;99183.81;;;11.32;92.15
20424;BME280;10371;49.042;8.002;2022-12-29T04:59:59;99187.38;;;11.31;92.20
20424;BME280;10371;49.042;8.002;2022-12-29T05:00:59;99185.63;;;11.31;91.92
20424;BME280;10371;49.042;8.002;2022-12-29T05:01:59;99179.66;;;11.39;90.77
20424;BME280;10371;49.042;8.002;2022-12-29T05:03:00;99182.66;;;11.44;90.08
20424;BME280;10371;49.042;8.002;2022-12-29T05:04:00;99179.91;;;11.46;89.51
20424;BME280;10371;49.042;8.002;2022-12-29T05:05:00;99176.84;;;11.50;89.40
20424;BME280;10371;49.042;8.002;2022-12-29T05:06:00;99178.81;;;11.48;89.33
20424;BME280;10371;49.042;8.002;2022-12-29T05:07:01;99174.41;;;11.49;89.46
20424;BME280;10371;49.042;8.002;2022-12-29T05:08:01;99180.81;;;11.54;89.10
20424;BME280;10371;49.042;8.002;2022-12-29T05:09:01;99173.81;;;11.55;89.01
20424;BME280;10371;49.042;8.002;2022-12-29T05:10:03;99172.72;;;11.57;88.68
20424;BME280;10371;49.042;8.002;2022-12-29T05:11:03;99177.94;;;11.57;88.14
20424;BME280;10371;49.042;8.002;2022-12-29T05:12:04;99175.72;;;11.62;87.60
20424;BME280;10371;49.042;8.002;2022-12-29T05:13:04;99172.41;;;11.60;87.89
20424;BME280;10371;49.042;8.002;2022-12-29T05:14:04;99169.97;;;11.59;87.74
20424;BME280;10371;49.042;8.002;2022-12-29T05:15:06;99184.78;;;11.58;87.55
20424;BME280;10371;49.042;8.002;2022-12-29T05:16:07;99172.72;;;11.57;87.44
20424;BME280;10371;49.042;8.002;2022-12-29T05:17:07;99170.78;;;11.59;87.74
20424;BME280;10371;49.042;8.002;2022-12-29T05:18:08;99173.69;;;11.56;87.90
20424;BME280;10371;49.042;8.002;2022-12-29T05:19:08;99173.00;;;11.54;87.60
20424;BME280;10371;49.042;8.002;2022-12-29T05:20:09;99173.00;;;11.54;87.75
20424;BME280;10371;49.042;8.002;2022-12-29T05:21:09;99160.09;;;11.53;87.27
20424;BME280;10371;49.042;8.002;2022-12-29T05:22:09;99167.63;;;11.56;87.00
20424;BME280;10371;49.042;8.002;2022-12-29T05:23:09;99163.25;;;11.56;86.83
20424;BME280;10371;49.042;8.002;2022-12-29T05:24:10;99161.59;;;11.55;86.73
20424;BME280;10371;49.042;8.002;2022-12-29T05:25:10;99160.09;;;11.53;86.54
20424;BME280;10371;49.042;8.002;2022-12-29T05:26:10;99176.72;;;11.52;86.63
20424;BME280;10371;49.042;8.002;2022-12-29T05:27:10;99161.09;;;11.52;86.65
20424;BME280;10371;49.042;8.002;2022-12-29T05:28:11;99165.19;;;11.54;86.70
20424;BME280;10371;49.042;8.002;2022-12-29T05:29:11;99159.97;;;11.54;86.36
20424;BME280;10371;49.042;8.002;2022-12-29T05:30:12;99168.78;;;11.53;86.16
20424;BME280;10371;49.042;8.002;2022-12-29T05:31:12;99164.50;;;11.52;86.31
20424;BME280;10371;49.042;8.002;2022-12-29T05:32:13;99176.19;;;11.48;86.25
20424;BME280;10371;49.042;8.002;2022-12-29T05:33:13;99168.38;;;11.48;86.21
20424;BME280;10371;49.042;8.002;2022-12-29T05:34:13;99169.72;;;11.52;86.11
20424;BME280;10371;49.042;8.002;2022-12-29T05:35:14;99175.91;;;11.51;86.17
20424;BME280;10371;49.042;8.002;2022-12-29T05:36:14;99174.94;;;11.52;86.10
20424;BME280;10371;49.042;8.002;2022-12-29T05:37:14;99169.97;;;11.59;85.85
20424;BME280;10371;49.042;8.002;2022-12-29T05:38:14;99172.41;;;11.60;85.88
20424;BME280;10371;49.042;8.002;2022-12-29T05:39:15;99172.41;;;11.60;85.61
20424;BME280;10371;49.042;8.002;2022-12-29T05:40:15;99172.59;;;11.59;85.74
20424;BME280;10371;49.042;8.002;2022-12-29T05:41:15;99165.28;;;11.62;85.51
20424;BME280;10371;49.042;8.002;2022-12-29T05:42:16;99172.63;;;11.67;85.23
20424;BME280;10371;49.042;8.002;2022-12-29T05:43:16;99169.09;;;11.68;85.12
20424;BME280;10371;49.042;8.002;2022-12-29T05:44:17;99158.50;;;11.70;84.95
20424;BME280;10371;49.042;8.002;2022-12-29T05:45:17;99160.00;;;11.72;84.89
20424;BME280;10371;49.042;8.002;2022-12-29T05:46:17;99165.38;;;11.71;85.01
20424;BME280;10371;49.042;8.002;2022-12-29T05:47:17;99159.34;;;11.70;84.93
20424;BME280;10371;49.042;8.002;2022-12-29T05:48:18;99145.09;;;11.65;84.91
20424;BME280;10371;49.042;8.002;2022-12-29T05:49:18;99160.16;;;11.71;84.93
20424;BME280;10371;49.042;8.002;2022-12-29T05:50:18;99154.78;;;11.72;84.84
20424;BME280;10371;49.042;8.002;2022-12-29T05:51:19;99166.19;;;11.71;84.83
20424;BME280;10371;49.042;8.002;2022-12-29T05:52:19;99171.41;;;11.71;85.00
20424;BME280;10371;49.042;8.002;2022-12-29T05:53:19;99165.88;;;11.74;85.03
20424;BME280;10371;49.042;8.002;2022-12-29T05:54:20;99165.19;;;11.72;84.98
20424;BME280;10371;49.042;8.002;2022-12-29T05:55:20;99165.19;;;11.72;84.93
20424;BME280;10371;49.042;8.002;2022-12-29T05:56:20;99150.03;;;11.68;84.97
20424;BME280;10371;49.042;8.002;2022-12-29T05:57:21;99170.41;;;11.72;85.06
20424;BME280;10371;49.042;8.002;2022-12-29T05:58:21;99168.78;;;11.71;84.79
20424;BME280;10371;49.042;8.002;2022-12-29T05:59:21;99176.44;;;11.73;84.62
20424;BME280;10371;49.042;8.002;2022-12-29T06:00:22;99167.16;;;11.70;84.53
20424;BME280;10371;49.042;8.002;2022-12-29T06:01:22;99171.53;;;11.70;84.56